Time;durP1;ratioP1;P1;durP2;ratioP2;P2;SDS_P1;SDS_P2;PMS_P1;PMS_P2;Temp;Humidity;BMP_temperature;BMP_pressure;BME280_temperature;BME280_humidity;BME280_pressure;Samples;Min_cycle;Max_cycle;Signal;HPM_P1;HPM_P2
2023/08/06 00:02:04;;;;;;;10.40;2.63;;;;;;;;;;5015924;28;20108;-71
2023/08/06 00:04:30;;;;;;;6.97;2.33;;;;;;;;;;5013876;28;20471;-72
2023/08/06 00:06:56;;;;;;;9.98;2.40;;;;;;;;;;5013405;28;20029;-71
2023/08/06 00:09:22;;;;;;;8.05;2.30;;;;;;;;;;5019101;28;20360;-72
2023/08/06 00:11:48;;;;;;;8.80;2.58;;;;;;;;;;4992968;28;20025;-71
2023/08/06 00:14:17;;;;;;;9.38;2.15;;;;;;;;;;5011900;28;20032;-72
2023/08/06 00:16:46;;;;;;;8.55;2.55;;;;;;;;;;4993833;28;20460;-71
2023/08/06 00:19:12;;;;;;;7.38;2.40;;;;;;;;;;5000246;28;20721;-71
2023/08/06 00:21:38;;;;;;;11.80;2.35;;;;;;;;;;5009455;28;20051;-71
2023/08/06 00:24:05;;;;;;;7.82;2.53;;;;;;;;;;4989303;28;20036;-70
2023/08/06 00:26:31;;;;;;;10.07;3.33;;;;;;;;;;4995641;28;20041;-72
2023/08/06 00:28:57;;;;;;;9.65;2.85;;;;;;;;;;5008187;28;20151;-70
2023/08/06 00:31:23;;;;;;;8.00;2.47;;;;;;;;;;4992196;28;20447;-70
2023/08/06 00:33:49;;;;;;;8.55;2.28;;;;;;;;;;4992059;28;20089;-69
2023/08/06 00:36:15;;;;;;;7.00;2.05;;;;;;;;;;4973101;28;20026;-70
2023/08/06 00:38:41;;;;;;;6.70;2.20;;;;;;;;;;4985515;28;20523;-70
2023/08/06 00:41:08;;;;;;;7.63;2.10;;;;;;;;;;4973003;28;20735;-69
2023/08/06 00:43:34;;;;;;;8.13;2.42;;;;;;;;;;4979209;28;20030;-70
2023/08/06 00:46:00;;;;;;;12.25;2.20;;;;;;;;;;4975061;28;20049;-70
2023/08/06 00:48:27;;;;;;;7.20;1.98;;;;;;;;;;4978253;28;20147;-69
2023/08/06 00:50:53;;;;;;;8.18;2.30;;;;;;;;;;4970470;28;20101;-69
2023/08/06 00:53:19;;;;;;;7.13;2.10;;;;;;;;;;4975856;28;20041;-69
2023/08/06 00:55:46;;;;;;;7.20;1.95;;;;;;;;;;4978720;28;20449;-69
2023/08/06 00:58:13;;;;;;;10.02;2.67;;;;;;;;;;4996243;28;20087;-69
2023/08/06 01:00:39;;;;;;;10.50;2.30;;;;;;;;;;4978499;28;20018;-69
2023/08/06 01:03:05;;;;;;;8.48;2.45;;;;;;;;;;4976336;28;20524;-72
2023/08/06 01:05:31;;;;;;;9.55;2.22;;;;;;;;;;4978859;28;20181;-71
2023/08/06 01:08:27;;;;;;;8.35;2.50;;;;;;;;;;4972125;28;20606;-71
2023/08/06 01:10:59;;;;;;;10.52;2.80;;;;;;;;;;4973748;28;20097;-69
2023/08/06 01:13:41;;;;;;;7.32;2.25;;;;;;;;;;4996729;28;20802;-69
2023/08/06 01:16:07;;;;;;;9.13;2.45;;;;;;;;;;4980035;28;20287;-69
2023/08/06 01:18:33;;;;;;;8.60;2.10;;;;;;;;;;4982664;28;20367;-69
2023/08/06 01:20:59;;;;;;;9.10;2.10;;;;;;;;;;4977574;28;20057;-69
2023/08/06 01:23:26;;;;;;;9.43;2.35;;;;;;;;;;4978296;28;20506;-70
2023/08/06 01:26:11;;;;;;;6.80;2.30;;;;;;;;;;4973563;28;20053;-69
2023/08/06 01:28:54;;;;;;;6.72;2.00;;;;;;;;;;4979740;28;20322;-70
2023/08/06 01:31:25;;;;;;;9.40;2.20;;;;;;;;;;4978507;28;20052;-70
2023/08/06 01:33:51;;;;;;;6.90;2.30;;;;;;;;;;5001867;28;20057;-70
2023/08/06 01:36:18;;;;;;;7.70;2.55;;;;;;;;;;5018717;28;20243;-70
2023/08/06 01:38:44;;;;;;;9.18;2.92;;;;;;;;;;5000998;28;20454;-71
2023/08/06 01:41:10;;;;;;;9.60;2.50;;;;;;;;;;5013969;28;20024;-70
2023/08/06 01:43:36;;;;;;;9.35;2.25;;;;;;;;;;5017224;28;20103;-70
2023/08/06 01:46:03;;;;;;;7.90;2.35;;;;;;;;;;4996788;28;20116;-70
2023/08/06 01:48:29;;;;;;;8.13;2.42;;;;;;;;;;5023573;28;20052;-70
2023/08/06 01:50:55;;;;;;;8.77;2.38;;;;;;;;;;5014711;28;20029;-69
2023/08/06 01:53:21;;;;;;;9.13;2.28;;;;;;;;;;5005131;28;20041;-69
2023/08/06 01:55:50;;;;;;;11.98;2.70;;;;;;;;;;4997553;28;20044;-70
2023/08/06 01:58:16;;;;;;;7.00;2.30;;;;;;;;;;5018313;28;20564;-69
2023/08/06 02:00:42;;;;;;;7.88;2.40;;;;;;;;;;5017702;28;20037;-69
2023/08/06 02:03:09;;;;;;;7.90;2.28;;;;;;;;;;5012472;28;20033;-70
2023/08/06 02:05:35;;;;;;;8.70;2.30;;;;;;;;;;5020005;28;20106;-70
2023/08/06 02:08:01;;;;;;;6.82;2.20;;;;;;;;;;5019547;28;20052;-70
2023/08/06 02:10:27;;;;;;;8.18;2.22;;;;;;;;;;5013670;28;20091;-70
2023/08/06 02:12:53;;;;;;;8.80;2.20;;;;;;;;;;5014161;28;20032;-70
2023/08/06 02:15:19;;;;;;;10.05;2.25;;;;;;;;;;4998692;28;20029;-70
2023/08/06 02:17:45;;;;;;;10.00;2.40;;;;;;;;;;5016865;28;20037;-69
2023/08/06 02:20:12;;;;;;;7.57;2.08;;;;;;;;;;5018850;28;20029;-69
2023/08/06 02:22:38;;;;;;;7.43;2.03;;;;;;;;;;5014362;28;20547;-69
2023/08/06 02:25:04;;;;;;;6.90;1.70;;;;;;;;;;5015417;28;20033;-69
2023/08/06 02:27:31;;;;;;;7.45;1.95;;;;;;;;;;5016664;28;20222;-70
2023/08/06 02:29:57;;;;;;;8.15;1.80;;;;;;;;;;5014844;28;20029;-70
2023/08/06 02:32:23;;;;;;;6.72;2.00;;;;;;;;;;4997199;28;20017;-69
2023/08/06 02:34:49;;;;;;;7.70;1.77;;;;;;;;;;5019267;28;20861;-69
2023/08/06 02:37:15;;;;;;;7.15;1.77;;;;;;;;;;5016848;28;20041;-69
2023/08/06 02:39:41;;;;;;;7.13;1.70;;;;;;;;;;5014709;28;20310;-69
2023/08/06 02:42:08;;;;;;;6.30;1.70;;;;;;;;;;5009495;28;20048;-71
2023/08/06 02:44:35;;;;;;;6.70;1.70;;;;;;;;;;5016733;28;20083;-70
2023/08/06 02:47:01;;;;;;;6.75;1.98;;;;;;;;;;5016696;28;20033;-69
2023/08/06 02:49:27;;;;;;;6.45;1.90;;;;;;;;;;5012503;28;20032;-69
2023/08/06 02:51:54;;;;;;;6.28;1.80;;;;;;;;;;5012833;28;20029;-69
2023/08/06 02:54:20;;;;;;;7.85;1.80;;;;;;;;;;5015654;28;20025;-69
2023/08/06 02:56:46;;;;;;;9.52;2.15;;;;;;;;;;5019045;28;20091;-69
2023/08/06 02:59:13;;;;;;;8.23;2.10;;;;;;;;;;5005386;28;20029;-70
2023/08/06 03:01:39;;;;;;;7.30;2.15;;;;;;;;;;5015948;28;20028;-69
2023/08/06 03:04:05;;;;;;;9.75;2.08;;;;;;;;;;5020052;28;20026;-69
2023/08/06 03:06:31;;;;;;;7.88;1.98;;;;;;;;;;5018742;28;20125;-69
2023/08/06 03:08:58;;;;;;;7.22;1.70;;;;;;;;;;4998912;28;20033;-69
2023/08/06 03:11:24;;;;;;;8.73;1.90;;;;;;;;;;5017883;28;20064;-69
2023/08/06 03:13:50;;;;;;;7.35;2.05;;;;;;;;;;5012912;28;20487;-69
2023/08/06 03:16:16;;;;;;;7.30;1.88;;;;;;;;;;5019155;28;20033;-69
2023/08/06 03:18:42;;;;;;;7.50;2.00;;;;;;;;;;5022169;28;20044;-69
2023/08/06 03:21:08;;;;;;;6.75;1.70;;;;;;;;;;5021908;28;20032;-69
2023/08/06 03:23:35;;;;;;;6.57;1.83;;;;;;;;;;5020118;28;20693;-69
2023/08/06 03:26:04;;;;;;;6.82;1.60;;;;;;;;;;5015160;28;20198;-69
2023/08/06 03:28:30;;;;;;;6.45;2.10;;;;;;;;;;5020642;28;20029;-69
2023/08/06 03:31:00;;;;;;;7.32;1.80;;;;;;;;;;5014118;28;20029;-70
2023/08/06 03:33:26;;;;;;;6.40;1.92;;;;;;;;;;5022642;28;20068;-69
2023/08/06 03:35:52;;;;;;;6.38;1.73;;;;;;;;;;5001726;28;20568;-70
2023/08/06 03:38:18;;;;;;;5.90;1.70;;;;;;;;;;5019711;28;20025;-69
2023/08/06 03:40:44;;;;;;;7.75;1.90;;;;;;;;;;5015542;28;20032;-70
2023/08/06 03:43:11;;;;;;;6.47;1.80;;;;;;;;;;5014623;28;20021;-70
2023/08/06 03:45:37;;;;;;;9.10;1.90;;;;;;;;;;5013774;28;20060;-69
2023/08/06 03:48:03;;;;;;;6.68;1.70;;;;;;;;;;5018629;28;20036;-69
2023/08/06 03:50:29;;;;;;;6.30;1.80;;;;;;;;;;5019831;28;20032;-69
2023/08/06 03:52:55;;;;;;;7.50;1.70;;;;;;;;;;5017063;28;20033;-69
2023/08/06 03:55:22;;;;;;;7.18;2.03;;;;;;;;;;5015675;28;20056;-69
2023/08/06 03:57:48;;;;;;;8.13;2.13;;;;;;;;;;5010478;28;20064;-70
2023/08/06 04:00:14;;;;;;;9.40;2.03;;;;;;;;;;5021365;28;20273;-70
2023/08/06 04:02:40;;;;;;;8.95;2.30;;;;;;;;;;5013878;28;20045;-70
2023/08/06 04:05:06;;;;;;;7.25;1.80;;;;;;;;;;5018241;28;20032;-69
2023/08/06 04:07:32;;;;;;;5.72;1.90;;;;;;;;;;5016927;28;20542;-69
2023/08/06 04:09:59;;;;;;;7.13;1.77;;;;;;;;;;5015809;28;20076;-70
2023/08/06 04:12:26;;;;;;;6.30;2.05;;;;;;;;;;5019972;28;20033;-70
2023/08/06 04:14:52;;;;;;;6.35;1.85;;;;;;;;;;5020176;28;20060;-70
2023/08/06 04:17:21;;;;;;;7.25;1.70;;;;;;;;;;5019383;28;20291;-70
2023/08/06 04:19:48;;;;;;;5.50;1.80;;;;;;;;;;5019863;28;20087;-69
2023/08/06 04:22:15;;;;;;;5.15;1.67;;;;;;;;;;5018828;28;20465;-69
2023/08/06 04:24:41;;;;;;;6.22;1.65;;;;;;;;;;5017115;28;20091;-69
2023/08/06 04:27:07;;;;;;;4.35;1.35;;;;;;;;;;4994383;28;20043;-69
2023/08/06 04:29:33;;;;;;;6.07;1.70;;;;;;;;;;5020448;28;20033;-69
2023/08/06 04:32:00;;;;;;;6.78;1.50;;;;;;;;;;5018692;28;20287;-69
2023/08/06 04:34:26;;;;;;;4.88;1.58;;;;;;;;;;5017232;28;20053;-70
2023/08/06 04:36:52;;;;;;;6.68;1.88;;;;;;;;;;5016291;28;20032;-69
2023/08/06 04:39:18;;;;;;;7.13;1.73;;;;;;;;;;5001347;28;20512;-70
2023/08/06 04:41:44;;;;;;;8.77;1.90;;;;;;;;;;5015746;28;20350;-70
2023/08/06 04:44:10;;;;;;;7.32;1.90;;;;;;;;;;5014046;28;20029;-70
2023/08/06 04:46:36;;;;;;;7.72;1.85;;;;;;;;;;5015282;28;20060;-71
2023/08/06 04:49:03;;;;;;;10.40;2.30;;;;;;;;;;4998024;28;20194;-71
2023/08/06 04:51:29;;;;;;;6.88;1.98;;;;;;;;;;5020314;28;20035;-69
2023/08/06 04:53:55;;;;;;;8.85;2.22;;;;;;;;;;5020711;28;20021;-69
2023/08/06 04:56:21;;;;;;;10.13;2.22;;;;;;;;;;4995857;28;20120;-69
2023/08/06 04:58:47;;;;;;;6.20;1.75;;;;;;;;;;4997057;28;20549;-69
2023/08/06 05:01:13;;;;;;;9.27;2.13;;;;;;;;;;5017139;28;20359;-69
2023/08/06 05:03:39;;;;;;;6.35;1.73;;;;;;;;;;5019838;28;20131;-71
2023/08/06 05:06:06;;;;;;;6.50;1.90;;;;;;;;;;5018082;28;20065;-69
2023/08/06 05:08:32;;;;;;;8.27;2.00;;;;;;;;;;5017763;28;20048;-69
2023/08/06 05:10:58;;;;;;;7.50;1.92;;;;;;;;;;5013811;28;20621;-69
2023/08/06 05:13:25;;;;;;;7.03;2.00;;;;;;;;;;5021986;28;20079;-70
2023/08/06 05:15:51;;;;;;;9.02;2.13;;;;;;;;;;5014641;28;20021;-70
2023/08/06 05:18:17;;;;;;;7.10;1.88;;;;;;;;;;5019271;28;20379;-69
2023/08/06 05:20:43;;;;;;;7.07;1.63;;;;;;;;;;5015974;28;20030;-70
2023/08/06 05:23:10;;;;;;;6.15;1.92;;;;;;;;;;5015821;28;20021;-70
2023/08/06 05:25:36;;;;;;;9.10;2.42;;;;;;;;;;5019303;28;20523;-69
2023/08/06 05:28:02;;;;;;;7.25;2.00;;;;;;;;;;5014093;28;20520;-69
2023/08/06 05:30:29;;;;;;;7.57;1.83;;;;;;;;;;5000312;28;20056;-70
2023/08/06 05:32:55;;;;;;;8.05;1.70;;;;;;;;;;4997542;28;20037;-70
2023/08/06 05:35:22;;;;;;;6.95;2.10;;;;;;;;;;5017845;28;20329;-69
2023/08/06 05:37:48;;;;;;;9.50;2.30;;;;;;;;;;5012907;28;20068;-70
2023/08/06 05:40:14;;;;;;;9.50;2.28;;;;;;;;;;5018011;28;20029;-70
2023/08/06 05:42:41;;;;;;;8.10;2.38;;;;;;;;;;5017113;28;20376;-70
2023/08/06 05:45:08;;;;;;;7.93;2.30;;;;;;;;;;5017999;28;22098;-70
2023/08/06 05:47:34;;;;;;;7.90;2.35;;;;;;;;;;5018442;28;20091;-70
2023/08/06 05:50:00;;;;;;;7.55;2.38;;;;;;;;;;4998499;28;20029;-70
2023/08/06 05:52:26;;;;;;;7.13;1.92;;;;;;;;;;5018836;28;20411;-70
2023/08/06 05:54:52;;;;;;;8.63;2.10;;;;;;;;;;5016732;28;20537;-69
2023/08/06 05:57:18;;;;;;;8.10;2.33;;;;;;;;;;4996593;28;20129;-71
2023/08/06 05:59:44;;;;;;;9.07;2.20;;;;;;;;;;5020264;28;20570;-69
2023/08/06 06:02:11;;;;;;;8.52;2.47;;;;;;;;;;4998384;28;20346;-69
2023/08/06 06:04:37;;;;;;;6.82;2.20;;;;;;;;;;5019371;28;20503;-69
2023/08/06 06:07:04;;;;;;;9.40;2.30;;;;;;;;;;5013756;28;20040;-69
2023/08/06 06:09:30;;;;;;;12.35;2.42;;;;;;;;;;4998251;28;20207;-69
2023/08/06 06:11:56;;;;;;;9.63;2.88;;;;;;;;;;5017293;28;20521;-69
2023/08/06 06:14:22;;;;;;;8.10;2.80;;;;;;;;;;5017455;28;20029;-70
2023/08/06 06:16:48;;;;;;;9.40;3.13;;;;;;;;;;5016460;28;20037;-69
2023/08/06 06:19:14;;;;;;;8.38;2.90;;;;;;;;;;5022229;28;20065;-69
2023/08/06 06:21:41;;;;;;;8.18;2.70;;;;;;;;;;5018042;28;20364;-69
2023/08/06 06:24:08;;;;;;;7.35;2.33;;;;;;;;;;5013323;28;20037;-70
2023/08/06 06:26:34;;;;;;;10.20;2.15;;;;;;;;;;5018239;28;20477;-70
2023/08/06 06:29:00;;;;;;;9.95;2.35;;;;;;;;;;5000349;28;20032;-70
2023/08/06 06:31:26;;;;;;;7.13;2.25;;;;;;;;;;5018830;28;20025;-69
2023/08/06 06:33:54;;;;;;;7.97;2.13;;;;;;;;;;5016303;28;20053;-70
2023/08/06 06:36:20;;;;;;;10.02;2.53;;;;;;;;;;5018853;28;20036;-70
2023/08/06 06:38:47;;;;;;;7.70;2.20;;;;;;;;;;5015675;28;20040;-69
2023/08/06 06:41:14;;;;;;;10.25;3.15;;;;;;;;;;5017820;28;20502;-69
2023/08/06 06:43:40;;;;;;;14.70;5.70;;;;;;;;;;5017029;28;20029;-70
2023/08/06 06:46:06;;;;;;;14.38;5.97;;;;;;;;;;4994247;28;20036;-69
2023/08/06 06:48:33;;;;;;;11.85;4.90;;;;;;;;;;5020755;28;20278;-69
2023/08/06 06:50:59;;;;;;;12.35;4.45;;;;;;;;;;4999690;28;20036;-69
2023/08/06 06:53:29;;;;;;;11.55;4.40;;;;;;;;;;5018917;28;20025;-70
2023/08/06 06:55:55;;;;;;;9.73;3.22;;;;;;;;;;5013756;28;20494;-70
2023/08/06 06:58:22;;;;;;;12.32;3.38;;;;;;;;;;5000411;28;20029;-70
2023/08/06 07:00:48;;;;;;;8.85;2.92;;;;;;;;;;5012154;28;20025;-71
2023/08/06 07:03:15;;;;;;;7.55;2.25;;;;;;;;;;4997750;28;20123;-70
2023/08/06 07:05:43;;;;;;;6.78;1.90;;;;;;;;;;5013899;28;20507;-70
2023/08/06 07:08:09;;;;;;;6.72;1.80;;;;;;;;;;5018399;28;20086;-70
2023/08/06 07:10:35;;;;;;;7.18;1.90;;;;;;;;;;5015192;28;20379;-70
2023/08/06 07:13:01;;;;;;;6.28;1.90;;;;;;;;;;5011778;28;20510;-69
2023/08/06 07:15:27;;;;;;;7.15;1.85;;;;;;;;;;5016634;28;20029;-69
2023/08/06 07:17:53;;;;;;;10.02;1.80;;;;;;;;;;5010884;28;20040;-70
2023/08/06 07:20:19;;;;;;;7.95;2.00;;;;;;;;;;5007637;28;20384;-70
2023/08/06 07:22:45;;;;;;;7.57;1.75;;;;;;;;;;5006875;28;20025;-70
2023/08/06 07:25:12;;;;;;;6.82;1.85;;;;;;;;;;4988559;28;20064;-70
2023/08/06 07:27:38;;;;;;;8.40;2.30;;;;;;;;;;5011286;28;20103;-72
2023/08/06 07:30:05;;;;;;;9.05;2.40;;;;;;;;;;5009825;28;20469;-70
2023/08/06 07:32:31;;;;;;;7.75;2.50;;;;;;;;;;5010063;28;20023;-69
2023/08/06 07:35:00;;;;;;;6.80;1.90;;;;;;;;;;5003397;28;20064;-69
2023/08/06 07:37:29;;;;;;;6.05;1.77;;;;;;;;;;5011824;28;20021;-69
2023/08/06 07:39:56;;;;;;;8.15;1.88;;;;;;;;;;5007943;28;21488;-70
2023/08/06 07:42:22;;;;;;;7.60;2.00;;;;;;;;;;5012044;28;20025;-69
2023/08/06 07:44:55;;;;;;;9.55;2.47;;;;;;;;;;5011545;28;20041;-72
2023/08/06 07:47:21;;;;;;;6.90;2.03;;;;;;;;;;5011614;28;20396;-72
2023/08/06 07:49:48;;;;;;;7.13;2.10;;;;;;;;;;5012226;28;20044;-69
2023/08/06 07:52:14;;;;;;;6.95;1.60;;;;;;;;;;5011537;28;20028;-70
2023/08/06 07:54:40;;;;;;;7.53;1.85;;;;;;;;;;5016908;28;20725;-70
2023/08/06 07:57:06;;;;;;;6.57;1.60;;;;;;;;;;5008734;28;20028;-70
2023/08/06 07:59:32;;;;;;;7.53;1.65;;;;;;;;;;5010170;28;20505;-70
2023/08/06 08:01:58;;;;;;;6.43;1.80;;;;;;;;;;5008850;28;20854;-70
2023/08/06 08:04:25;;;;;;;8.48;2.50;;;;;;;;;;4996083;28;20041;-70
2023/08/06 08:06:51;;;;;;;9.35;2.17;;;;;;;;;;5009247;28;20037;-71
2023/08/06 08:09:18;;;;;;;7.85;1.80;;;;;;;;;;5009983;28;20445;-72
2023/08/06 08:11:44;;;;;;;6.85;1.90;;;;;;;;;;5016750;28;20060;-71
2023/08/06 08:14:10;;;;;;;8.35;2.03;;;;;;;;;;5006377;28;20118;-70
2023/08/06 08:16:36;;;;;;;6.88;1.80;;;;;;;;;;5015981;28;20056;-70
2023/08/06 08:19:03;;;;;;;7.93;1.70;;;;;;;;;;5008911;28;20041;-70
2023/08/06 08:21:30;;;;;;;7.25;1.58;;;;;;;;;;5010968;28;20615;-72
2023/08/06 08:23:56;;;;;;;5.72;1.52;;;;;;;;;;4991366;28;20947;-71
2023/08/06 08:26:23;;;;;;;5.90;1.40;;;;;;;;;;5013080;28;20554;-71
2023/08/06 08:28:49;;;;;;;7.28;1.80;;;;;;;;;;4993572;28;20135;-70
2023/08/06 08:31:16;;;;;;;7.40;2.80;;;;;;;;;;5011096;28;20056;-70
2023/08/06 08:33:42;;;;;;;9.73;2.30;;;;;;;;;;5012262;28;20051;-70
2023/08/06 08:36:09;;;;;;;6.80;2.10;;;;;;;;;;5008419;28;20116;-70
2023/08/06 08:38:36;;;;;;;6.70;1.65;;;;;;;;;;5015069;28;20025;-71
2023/08/06 08:41:02;;;;;;;8.00;1.80;;;;;;;;;;5009798;28;20938;-71
2023/08/06 08:43:29;;;;;;;6.07;1.52;;;;;;;;;;5013315;28;20052;-71
2023/08/06 08:46:01;;;;;;;6.68;1.67;;;;;;;;;;5008552;28;20017;-71
2023/08/06 08:48:28;;;;;;;5.18;1.80;;;;;;;;;;5009893;28;20037;-71
2023/08/06 08:50:54;;;;;;;6.40;1.63;;;;;;;;;;4989579;28;20039;-72
2023/08/06 08:53:22;;;;;;;6.72;1.85;;;;;;;;;;5011205;28;20856;-70
2023/08/06 08:55:49;;;;;;;7.25;2.03;;;;;;;;;;5011069;28;20033;-70
2023/08/06 08:58:15;;;;;;;9.43;1.67;;;;;;;;;;5010551;28;20033;-69
2023/08/06 09:00:48;;;;;;;5.43;1.48;;;;;;;;;;4997510;28;20376;-70
2023/08/06 09:03:14;;;;;;;7.85;1.42;;;;;;;;;;5008943;28;20155;-70
2023/08/06 09:05:44;;;;;;;6.88;1.27;;;;;;;;;;4994160;28;20874;-70
2023/08/06 09:08:12;;;;;;;8.25;1.60;;;;;;;;;;4988789;28;20033;-70
2023/08/06 09:10:39;;;;;;;8.73;1.63;;;;;;;;;;5010214;28;20021;-70
2023/08/06 09:13:06;;;;;;;6.75;1.38;;;;;;;;;;5012416;28;20713;-70
2023/08/06 09:15:33;;;;;;;7.53;1.52;;;;;;;;;;5012007;28;20021;-70
2023/08/06 09:17:59;;;;;;;6.25;1.40;;;;;;;;;;5012999;28;20164;-70
2023/08/06 09:20:26;;;;;;;6.55;1.73;;;;;;;;;;5014707;28;20089;-70
2023/08/06 09:22:55;;;;;;;7.25;1.75;;;;;;;;;;4991880;28;20254;-72
2023/08/06 09:25:23;;;;;;;7.00;1.70;;;;;;;;;;5013367;28;20466;-70
2023/08/06 09:27:50;;;;;;;5.00;1.40;;;;;;;;;;5008541;28;20026;-71
2023/08/06 09:30:30;;;;;;;5.38;1.30;;;;;;;;;;5011944;28;20575;-70
2023/08/06 09:32:56;;;;;;;6.85;1.40;;;;;;;;;;5007446;28;20231;-70
2023/08/06 09:35:22;;;;;;;4.75;1.30;;;;;;;;;;5010522;28;20052;-70
2023/08/06 09:37:48;;;;;;;5.28;1.30;;;;;;;;;;5006747;28;20025;-70
2023/08/06 09:40:28;;;;;;;6.20;1.40;;;;;;;;;;5010936;28;20683;-70
2023/08/06 09:42:55;;;;;;;5.93;1.33;;;;;;;;;;5008075;28;20021;-70
2023/08/06 09:45:24;;;;;;;6.00;1.40;;;;;;;;;;5012903;28;20339;-71
2023/08/06 09:47:56;;;;;;;6.07;1.20;;;;;;;;;;5008089;28;20036;-70
2023/08/06 09:50:27;;;;;;;5.15;1.35;;;;;;;;;;4992030;28;20075;-70
2023/08/06 09:52:53;;;;;;;6.40;1.60;;;;;;;;;;4991224;28;20033;-70
2023/08/06 09:55:20;;;;;;;5.75;1.30;;;;;;;;;;4994281;28;20029;-72
2023/08/06 09:57:46;;;;;;;6.00;1.40;;;;;;;;;;5013664;28;20595;-71
2023/08/06 10:00:13;;;;;;;5.07;1.25;;;;;;;;;;4990557;28;20613;-71
2023/08/06 10:02:40;;;;;;;4.80;1.05;;;;;;;;;;5013547;28;20527;-71
2023/08/06 10:05:07;;;;;;;6.53;1.50;;;;;;;;;;4990970;28;20092;-73
2023/08/06 10:07:33;;;;;;;5.53;1.38;;;;;;;;;;5011480;28;20216;-71
2023/08/06 10:10:00;;;;;;;4.40;1.38;;;;;;;;;;5005635;28;20049;-73
2023/08/06 10:12:28;;;;;;;5.57;1.40;;;;;;;;;;5009985;28;20266;-71
2023/08/06 10:14:56;;;;;;;8.48;1.50;;;;;;;;;;4991881;28;20045;-72
2023/08/06 10:17:23;;;;;;;3.90;1.17;;;;;;;;;;4991866;28;20303;-72
2023/08/06 10:19:50;;;;;;;4.43;1.30;;;;;;;;;;5007607;28;20550;-70
2023/08/06 10:22:17;;;;;;;5.55;1.30;;;;;;;;;;5012582;28;20510;-71
2023/08/06 10:24:51;;;;;;;8.18;1.33;;;;;;;;;;4993433;28;20037;-71
2023/08/06 10:27:21;;;;;;;6.60;1.50;;;;;;;;;;5008620;28;20030;-71
2023/08/06 10:29:48;;;;;;;6.03;1.45;;;;;;;;;;5011822;28;20510;-71
2023/08/06 10:32:14;;;;;;;6.72;1.50;;;;;;;;;;5009453;28;20025;-71
2023/08/06 10:34:57;;;;;;;6.22;1.50;;;;;;;;;;5007275;28;20062;-71
2023/08/06 10:37:23;;;;;;;4.90;1.20;;;;;;;;;;5012607;28;20042;-70
2023/08/06 10:39:50;;;;;;;5.35;1.17;;;;;;;;;;5006484;28;20201;-71
2023/08/06 10:42:20;;;;;;;6.00;1.20;;;;;;;;;;5008250;28;20086;-71
2023/08/06 10:45:13;;;;;;;8.57;1.30;;;;;;;;;;5010000;28;20035;-71
2023/08/06 10:47:39;;;;;;;5.40;1.02;;;;;;;;;;4990566;28;20519;-71
2023/08/06 10:50:07;;;;;;;5.30;1.15;;;;;;;;;;5007868;28;20021;-71
2023/08/06 10:52:33;;;;;;;4.43;1.13;;;;;;;;;;5011512;28;20534;-70
2023/08/06 10:54:59;;;;;;;4.95;1.42;;;;;;;;;;5008911;28;20585;-72
2023/08/06 10:57:26;;;;;;;7.13;1.55;;;;;;;;;;4999164;28;20037;-72
2023/08/06 10:59:52;;;;;;;5.22;1.30;;;;;;;;;;5002900;28;20025;-70
2023/08/06 11:02:18;;;;;;;6.93;1.50;;;;;;;;;;5008310;28;20068;-73
2023/08/06 11:04:44;;;;;;;6.90;1.30;;;;;;;;;;5011878;28;20033;-71
2023/08/06 11:07:10;;;;;;;6.30;1.50;;;;;;;;;;4990613;28;20110;-72
2023/08/06 11:09:37;;;;;;;5.75;1.40;;;;;;;;;;5010027;28;20025;-71
2023/08/06 11:12:09;;;;;;;8.60;1.85;;;;;;;;;;5008626;28;20144;-72
2023/08/06 11:14:35;;;;;;;5.80;1.48;;;;;;;;;;5008559;28;20450;-71
2023/08/06 11:17:02;;;;;;;6.20;1.60;;;;;;;;;;5013846;28;20445;-71
2023/08/06 11:19:28;;;;;;;6.10;1.48;;;;;;;;;;5014052;28;20033;-71
2023/08/06 11:21:55;;;;;;;6.22;1.65;;;;;;;;;;5008239;28;20669;-72
2023/08/06 11:24:21;;;;;;;5.85;1.30;;;;;;;;;;5013258;28;20712;-72
2023/08/06 11:26:47;;;;;;;7.80;1.25;;;;;;;;;;5009034;28;20025;-71
2023/08/06 11:29:15;;;;;;;8.20;1.90;;;;;;;;;;4999332;28;20356;-71
2023/08/06 11:31:41;;;;;;;8.88;2.10;;;;;;;;;;4993807;28;20124;-71
2023/08/06 11:34:09;;;;;;;7.65;1.58;;;;;;;;;;5012955;28;20073;-71
2023/08/06 11:36:37;;;;;;;8.77;1.88;;;;;;;;;;4994834;28;20574;-71
2023/08/06 11:39:06;;;;;;;8.02;2.08;;;;;;;;;;5009184;28;20270;-72
2023/08/06 11:41:33;;;;;;;7.65;2.08;;;;;;;;;;5013142;28;20028;-71
2023/08/06 11:44:00;;;;;;;8.15;2.00;;;;;;;;;;5009179;28;20039;-71
2023/08/06 11:46:26;;;;;;;6.90;1.80;;;;;;;;;;5009989;28;20029;-71
2023/08/06 11:48:56;;;;;;;8.18;1.83;;;;;;;;;;5013052;28;20040;-71
2023/08/06 11:51:28;;;;;;;6.63;1.73;;;;;;;;;;5013113;28;20429;-72
2023/08/06 11:53:58;;;;;;;7.90;1.75;;;;;;;;;;4994476;28;20049;-72
2023/08/06 11:56:27;;;;;;;7.10;1.83;;;;;;;;;;5010214;28;20029;-72
2023/08/06 11:58:54;;;;;;;8.32;2.10;;;;;;;;;;4995155;28;20037;-73
2023/08/06 12:01:20;;;;;;;7.45;2.10;;;;;;;;;;5014369;28;20029;-71
2023/08/06 12:03:47;;;;;;;6.22;1.90;;;;;;;;;;5011590;28;20041;-72
2023/08/06 12:06:13;;;;;;;9.32;2.30;;;;;;;;;;4994187;28;20116;-73
2023/08/06 12:08:41;;;;;;;11.57;3.03;;;;;;;;;;5009904;28;20133;-72
2023/08/06 12:11:07;;;;;;;10.27;3.92;;;;;;;;;;5009869;28;20686;-73
2023/08/06 12:13:33;;;;;;;10.93;4.03;;;;;;;;;;5012261;28;20029;-72
2023/08/06 12:15:59;;;;;;;8.95;2.90;;;;;;;;;;5012277;28;20033;-73
2023/08/06 12:18:26;;;;;;;9.55;2.83;;;;;;;;;;5011079;28;20033;-72
2023/08/06 12:20:52;;;;;;;9.68;3.03;;;;;;;;;;5008389;28;20029;-73
2023/08/06 12:23:18;;;;;;;11.63;2.50;;;;;;;;;;5010371;28;20391;-72
2023/08/06 12:25:44;;;;;;;9.00;2.20;;;;;;;;;;5009864;28;20036;-72
2023/08/06 12:28:12;;;;;;;7.72;2.35;;;;;;;;;;5005617;28;20037;-72
2023/08/06 12:30:41;;;;;;;12.23;2.40;;;;;;;;;;5008275;28;20129;-72
2023/08/06 12:33:08;;;;;;;10.32;2.20;;;;;;;;;;5007661;28;20410;-72
2023/08/06 12:35:34;;;;;;;10.23;2.08;;;;;;;;;;5008944;28;20306;-73
2023/08/06 12:38:00;;;;;;;9.57;1.98;;;;;;;;;;5011504;28;20037;-74
2023/08/06 12:40:26;;;;;;;9.88;2.30;;;;;;;;;;4995397;28;20289;-71
2023/08/06 12:42:54;;;;;;;8.65;2.08;;;;;;;;;;5009530;28;20068;-70
2023/08/06 12:45:23;;;;;;;14.50;2.90;;;;;;;;;;5011713;28;20068;-73
2023/08/06 12:47:49;;;;;;;10.90;2.03;;;;;;;;;;5006717;28;20042;-72
2023/08/06 12:50:17;;;;;;;6.25;1.60;;;;;;;;;;5011920;28;20083;-72
2023/08/06 12:52:43;;;;;;;7.88;2.22;;;;;;;;;;4992422;28;20029;-72
2023/08/06 12:55:09;;;;;;;9.07;2.20;;;;;;;;;;5005785;28;20055;-71
2023/08/06 12:57:35;;;;;;;8.73;2.15;;;;;;;;;;5013782;28;20041;-72
2023/08/06 13:00:01;;;;;;;9.85;2.40;;;;;;;;;;5009966;28;20037;-71
2023/08/06 13:02:29;;;;;;;8.18;2.17;;;;;;;;;;5008359;28;20160;-71
2023/08/06 13:04:56;;;;;;;9.45;2.22;;;;;;;;;;5008599;28;20594;-71
2023/08/06 13:07:22;;;;;;;10.77;3.38;;;;;;;;;;5009209;28;20041;-71
2023/08/06 13:09:48;;;;;;;11.15;3.08;;;;;;;;;;5008031;28;20029;-70
2023/08/06 13:12:14;;;;;;;12.02;2.80;;;;;;;;;;5008867;28;20029;-70
2023/08/06 13:14:40;;;;;;;9.43;2.42;;;;;;;;;;5009580;28;20036;-71
2023/08/06 13:17:07;;;;;;;7.85;2.10;;;;;;;;;;5008873;28;20315;-71
2023/08/06 13:19:33;;;;;;;9.63;2.42;;;;;;;;;;5012926;28;20037;-71
2023/08/06 13:22:08;;;;;;;10.65;2.20;;;;;;;;;;5010504;28;20033;-71
2023/08/06 13:24:34;;;;;;;8.07;1.98;;;;;;;;;;5007527;28;20340;-71
2023/08/06 13:27:01;;;;;;;8.80;2.25;;;;;;;;;;5009142;28;20047;-71
2023/08/06 13:29:27;;;;;;;8.98;2.05;;;;;;;;;;5013421;28;20029;-72
2023/08/06 13:31:54;;;;;;;7.63;1.88;;;;;;;;;;5011785;28;20037;-72
2023/08/06 13:34:20;;;;;;;9.40;2.28;;;;;;;;;;4999978;28;20825;-71
2023/08/06 13:36:46;;;;;;;11.30;2.65;;;;;;;;;;4976718;28;20033;-71
2023/08/06 13:39:16;;;;;;;9.43;2.38;;;;;;;;;;4978358;28;20026;-72
2023/08/06 13:41:42;;;;;;;10.73;2.25;;;;;;;;;;4978153;28;20161;-72
2023/08/06 13:44:08;;;;;;;10.23;2.30;;;;;;;;;;4977650;28;20842;-72
2023/08/06 13:46:34;;;;;;;11.10;2.40;;;;;;;;;;4978440;28;20052;-72
2023/08/06 13:49:00;;;;;;;9.15;2.38;;;;;;;;;;4989602;28;20030;-73
2023/08/06 13:51:27;;;;;;;7.00;1.85;;;;;;;;;;4998265;28;20124;-72
2023/08/06 13:53:54;;;;;;;10.77;2.42;;;;;;;;;;4977708;28;20117;-72
2023/08/06 13:56:20;;;;;;;10.07;2.35;;;;;;;;;;4990899;28;21436;-71
2023/08/06 13:58:47;;;;;;;9.10;2.22;;;;;;;;;;4979302;28;20570;-71
2023/08/06 14:01:13;;;;;;;13.27;2.35;;;;;;;;;;4996404;28;20026;-72
2023/08/06 14:03:39;;;;;;;9.85;2.40;;;;;;;;;;4978872;28;20030;-73
2023/08/06 14:06:05;;;;;;;9.00;2.20;;;;;;;;;;4978375;28;20044;-73
2023/08/06 14:08:31;;;;;;;8.77;2.13;;;;;;;;;;4978005;28;20041;-73
2023/08/06 14:10:58;;;;;;;9.38;2.30;;;;;;;;;;4974007;28;20073;-72
2023/08/06 14:13:24;;;;;;;9.40;2.00;;;;;;;;;;4978234;28;20725;-72
2023/08/06 14:15:50;;;;;;;8.15;2.00;;;;;;;;;;4976698;28;20034;-72
2023/08/06 14:18:17;;;;;;;14.13;2.63;;;;;;;;;;4978331;28;20052;-72
2023/08/06 14:20:43;;;;;;;11.85;2.60;;;;;;;;;;4978718;28;20038;-70
2023/08/06 14:23:09;;;;;;;9.32;2.28;;;;;;;;;;4975274;28;20113;-71
2023/08/06 14:25:35;;;;;;;8.88;2.30;;;;;;;;;;4979133;28;20148;-73
2023/08/06 14:28:02;;;;;;;11.00;2.60;;;;;;;;;;4976475;28;20034;-72
2023/08/06 14:30:28;;;;;;;7.75;2.20;;;;;;;;;;4977662;28;20034;-72
2023/08/06 14:32:54;;;;;;;10.38;2.38;;;;;;;;;;4976539;28;20030;-73
2023/08/06 14:35:20;;;;;;;10.80;2.85;;;;;;;;;;5010314;28;20037;-73
2023/08/06 14:37:46;;;;;;;8.40;2.42;;;;;;;;;;5010548;28;20033;-73
2023/08/06 14:40:13;;;;;;;10.20;2.33;;;;;;;;;;4990413;28;20037;-71